Vanquish — PHCU — position and weather

sailwx.info

Track history (hours):
 
Tides and Currents Weather Stations Pressure Air Temp Water Temp Dewpoint Dewpoint Depression Visibility Wind Speed Wind Dir Waves Ship Positions

Vanquish

Last reported at 2015-May-26 22:33 UTC. Time now 2015-May-27 01:51 UTC.
Position N 53°43' W 005°54'.

MMSI: 246138952.

Date/timePositionNaut miles runAvg speedWind from/ knotsBaromVisibWave heightAir tempDewpointWater temp
2015-May-26 22:33N 53°43' W 005°54'1615.6
2015-May-26 21:33N 53°58' W 006°02'11 1.8
2015-May-26 15:25N 54°06' W 006°16'1011.1
2015-May-26 14:33N 54°00' W 006°03'1514.9
2015-May-26 13:33N 53°46' W 005°55'17511.6
2015-May-25 22:33N 51°24' W 003°08'1313.1
2015-May-25 21:33N 51°29' W 002°49'4 4.4
2015-May-25 20:34N 51°30' W 002°42'0 0.2
2015-May-25 19:33N 51°30' W 002°42'0 0.0
2015-May-25 18:33N 51°30' W 002°42'0 0.0
2015-May-25 17:33N 51°30' W 002°42'0 0.0
2015-May-25 16:33N 51°30' W 002°42'0 0.0
2015-May-25 15:33N 51°30' W 002°42'0 0.0
2015-May-25 14:33N 51°30' W 002°42'0 0.0
2015-May-25 13:33N 51°30' W 002°42'0 0.0
2015-May-25 12:33N 51°30' W 002°42'0 0.0
2015-May-25 11:33N 51°30' W 002°42'0 0.0
2015-May-25 10:33N 51°30' W 002°42'0 0.0
2015-May-25 09:33N 51°30' W 002°42'0 0.0
2015-May-25 08:33N 51°30' W 002°42'0 0.0
2015-May-25 07:33N 51°30' W 002°42'0 0.0
2015-May-25 06:33N 51°30' W 002°42'0 0.0
2015-May-25 05:33N 51°30' W 002°42'0 0.0
2015-May-25 04:33N 51°30' W 002°42'0 0.0
2015-May-25 03:33N 51°30' W 002°42'0 0.0
2015-May-25 02:33N 51°30' W 002°42'0 0.0
2015-May-25 01:33N 51°30' W 002°42'0 0.0
2015-May-25 00:33N 51°30' W 002°42'0 0.0
2015-May-24 23:33N 51°30' W 002°42'0 0.0
2015-May-24 22:33N 51°30' W 002°42'0 0.1
2015-May-24 21:33N 51°30' W 002°42'1 0.6
2015-May-24 20:33N 51°31' W 002°43'1211.9
2015-May-24 19:33N 51°26' W 003°01'105 8.7
2015-May-24 07:27N 52°14' W 005°32'9113.0
2015-May-24 00:30N 53°44' W 005°54'1112.0
2015-May-23 23:33N 53°54' W 005°59'1110.6
2015-May-23 22:31N 54°03' W 006°10'0 0.0
2015-May-23 13:13N 54°04' W 006°10'914.0
2015-May-23 12:33N 53°57' W 006°00'18511.9
2015-May-22 21:04N 51°23' W 003°10'612.4
2015-May-22 20:33N 51°26' W 003°01'1211.6
2015-May-22 19:33N 51°30' W 002°44'1 0.8
2015-May-22 18:33N 51°30' W 002°42'0 0.0
2015-May-22 17:33N 51°30' W 002°42'0 0.0
2015-May-22 16:33N 51°30' W 002°42'0 0.0
2015-May-22 15:33N 51°30' W 002°42'0 0.0
2015-May-22 14:33N 51°30' W 002°42'0 0.0
2015-May-22 13:33N 51°30' W 002°42'0 0.0
2015-May-22 12:33N 51°30' W 002°42'0 0.0
2015-May-22 11:33N 51°30' W 002°42'0 0.0
2015-May-22 10:33N 51°30' W 002°42'0 0.0
2015-May-22 09:33N 51°30' W 002°42'0 0.0
2015-May-22 08:33N 51°30' W 002°42'0 0.0
2015-May-22 07:33N 51°30' W 002°42'0 0.0
2015-May-22 06:32N 51°30' W 002°42'0 0.0
2015-May-22 05:33N 51°30' W 002°42'0 0.0
2015-May-22 04:33N 51°30' W 002°42'0 0.0
2015-May-22 03:33N 51°30' W 002°42'0 0.0
2015-May-22 02:33N 51°30' W 002°42'0 0.0
2015-May-22 01:33N 51°30' W 002°42'0 0.0
2015-May-22 00:32N 51°30' W 002°42'0 0.0
2015-May-21 23:33N 51°30' W 002°42'0 0.0
2015-May-21 22:33N 51°30' W 002°42'2 1.9
2015-May-21 21:33N 51°30' W 002°45'1313.1
2015-May-21 20:32N 51°24' W 003°04'167 8.8
2015-May-21 01:31N 53°37' W 005°50'1511.8
2015-May-21 00:16N 53°51' W 005°58'811.7
2015-May-20 23:33N 53°59' W 006°02'1010.1
2015-May-20 22:33N 54°06' W 006°15'1 0.2
2015-May-20 18:20N 54°06' W 006°16'3 0.6
2015-May-20 13:30N 54°04' W 006°12'1010.9
2015-May-20 12:33N 53°57' W 005°60'18712.3
2015-May-19 21:20N 51°21' W 003°08'1215.4
2015-May-19 20:33N 51°28' W 002°53'7 6.9
2015-May-19 19:33N 51°30' W 002°42'0 0.0
2015-May-19 18:32N 51°30' W 002°42'0 0.0
2015-May-19 17:32N 51°30' W 002°42'0 0.0
2015-May-19 16:32N 51°30' W 002°42'0 0.0
2015-May-19 15:32N 51°30' W 002°42'0 0.0
2015-May-19 14:32N 51°30' W 002°42'0 0.0
2015-May-19 13:32N 51°30' W 002°42'0 0.0
2015-May-19 12:32N 51°30' W 002°42'0 0.0
2015-May-19 11:32N 51°30' W 002°42'0 0.0
2015-May-19 10:32N 51°30' W 002°42'0 0.0
2015-May-19 09:32N 51°30' W 002°42'0 0.0
2015-May-19 08:32N 51°30' W 002°42'0 0.0
2015-May-19 07:32N 51°30' W 002°42'0 0.0
2015-May-19 06:32N 51°30' W 002°42'0 0.0
2015-May-19 05:32N 51°30' W 002°42'0 0.0
2015-May-19 04:32N 51°30' W 002°42'0 0.0
2015-May-19 03:32N 51°30' W 002°42'0 0.0
2015-May-19 02:32N 51°30' W 002°42'0 0.0
2015-May-19 01:32N 51°30' W 002°42'0 0.0
2015-May-19 00:32N 51°30' W 002°42'0 0.0
2015-May-18 23:32N 51°30' W 002°42'0 0.0
2015-May-18 22:32N 51°30' W 002°42'0 0.0
2015-May-18 21:32N 51°30' W 002°42'0 0.0
2015-May-18 20:29N 51°30' W 002°42'0 0.0
2015-May-18 19:32N 51°30' W 002°42'0 0.0
2015-May-18 18:32N 51°30' W 002°42'0 0.0
2015-May-18 17:32N 51°30' W 002°42'0 0.1
2015-May-18 16:32N 51°31' W 002°42'0 0.0
2015-May-18 15:32N 51°31' W 002°42'0 0.0
2015-May-18 14:32N 51°31' W 002°42'0 0.0
2015-May-18 13:32N 51°31' W 002°42'0 0.0
2015-May-18 12:32N 51°31' W 002°42'0 0.0
2015-May-18 11:32N 51°31' W 002°42'0 0.0
2015-May-18 10:32N 51°31' W 002°42'0 0.0
2015-May-18 09:32N 51°31' W 002°42'0 0.0
2015-May-18 08:32N 51°31' W 002°42'0 0.0
2015-May-18 07:32N 51°31' W 002°42'0 0.0
2015-May-18 06:32N 51°31' W 002°42'0 0.0
2015-May-18 05:32N 51°31' W 002°42'0 0.0
2015-May-18 04:32N 51°31' W 002°42'0 0.0
2015-May-18 03:32N 51°31' W 002°42'0 0.0
2015-May-18 02:31N 51°31' W 002°42'0 0.0
2015-May-18 01:32N 51°31' W 002°42'0 0.0
2015-May-18 00:32N 51°31' W 002°42'0 0.0
2015-May-17 23:32N 51°31' W 002°42'0 0.0
2015-May-17 22:31N 51°31' W 002°42'0 0.0
2015-May-17 21:32N 51°31' W 002°42'0 0.0
2015-May-17 20:32N 51°31' W 002°42'0 0.0
2015-May-17 19:31N 51°31' W 002°42'0 0.0
2015-May-17 18:31N 51°31' W 002°42'0 0.0
2015-May-17 17:32N 51°31' W 002°42'0 0.1
2015-May-17 16:31N 51°30' W 002°42'0 0.0
2015-May-17 15:32N 51°30' W 002°42'0 0.0
2015-May-17 14:31N 51°30' W 002°42'0 0.0
2015-May-17 13:31N 51°30' W 002°42'0 0.0
2015-May-17 12:31N 51°30' W 002°42'0 0.0
2015-May-17 11:31N 51°30' W 002°42'0 0.0
2015-May-17 10:31N 51°30' W 002°42'0 0.0
2015-May-17 09:31N 51°30' W 002°42'0 0.0
2015-May-17 08:33N 51°30' W 002°42'0 0.0
2015-May-17 07:31N 51°30' W 002°42'0 0.0
2015-May-17 06:32N 51°30' W 002°42'0 0.0
2015-May-17 05:31N 51°30' W 002°42'0 0.0
2015-May-17 04:31N 51°30' W 002°42'0 0.0
2015-May-17 03:31N 51°30' W 002°42'0 0.0
2015-May-17 02:31N 51°30' W 002°42'0 0.0
2015-May-17 01:31N 51°30' W 002°42'0 0.0
2015-May-17 00:31N 51°30' W 002°42'0 0.0
2015-May-16 23:31N 51°30' W 002°42'  
Track history (hours):
 
Tides and Currents Weather Stations Pressure Air Temp Water Temp Dewpoint Dewpoint Depression Visibility Wind Speed Wind Dir Waves Ship Positions

Vanquish

Last reported at 2015-May-26 22:33 UTC. Time now 2015-May-27 01:51 UTC.
Position N 53°43' W 005°54'.

MMSI: 246138952.

Date/timePositionNaut miles runAvg speedWind from/ knotsBaromVisibWave heightAir tempDewpointWater temp
2015-May-26 22:33N 53°43' W 005°54'1615.6
2015-May-26 21:33N 53°58' W 006°02'11 1.8
2015-May-26 15:25N 54°06' W 006°16'1011.1
2015-May-26 14:33N 54°00' W 006°03'1514.9
2015-May-26 13:33N 53°46' W 005°55'17511.6
2015-May-25 22:33N 51°24' W 003°08'1313.1
2015-May-25 21:33N 51°29' W 002°49'4 4.4
2015-May-25 20:34N 51°30' W 002°42'0 0.2
2015-May-25 19:33N 51°30' W 002°42'0 0.0
2015-May-25 18:33N 51°30' W 002°42'0 0.0
2015-May-25 17:33N 51°30' W 002°42'0 0.0
2015-May-25 16:33N 51°30' W 002°42'0 0.0
2015-May-25 15:33N 51°30' W 002°42'0 0.0
2015-May-25 14:33N 51°30' W 002°42'0 0.0
2015-May-25 13:33N 51°30' W 002°42'0 0.0
2015-May-25 12:33N 51°30' W 002°42'0 0.0
2015-May-25 11:33N 51°30' W 002°42'0 0.0
2015-May-25 10:33N 51°30' W 002°42'0 0.0
2015-May-25 09:33N 51°30' W 002°42'0 0.0
2015-May-25 08:33N 51°30' W 002°42'0 0.0
2015-May-25 07:33N 51°30' W 002°42'0 0.0
2015-May-25 06:33N 51°30' W 002°42'0 0.0
2015-May-25 05:33N 51°30' W 002°42'0 0.0
2015-May-25 04:33N 51°30' W 002°42'0 0.0
2015-May-25 03:33N 51°30' W 002°42'0 0.0
2015-May-25 02:33N 51°30' W 002°42'0 0.0
2015-May-25 01:33N 51°30' W 002°42'0 0.0
2015-May-25 00:33N 51°30' W 002°42'0 0.0
2015-May-24 23:33N 51°30' W 002°42'0 0.0
2015-May-24 22:33N 51°30' W 002°42'0 0.1
2015-May-24 21:33N 51°30' W 002°42'1 0.6
2015-May-24 20:33N 51°31' W 002°43'1211.9
2015-May-24 19:33N 51°26' W 003°01'105 8.7
2015-May-24 07:27N 52°14' W 005°32'9113.0
2015-May-24 00:30N 53°44' W 005°54'1112.0
2015-May-23 23:33N 53°54' W 005°59'1110.6
2015-May-23 22:31N 54°03' W 006°10'0 0.0
2015-May-23 13:13N 54°04' W 006°10'914.0
2015-May-23 12:33N 53°57' W 006°00'18511.9
2015-May-22 21:04N 51°23' W 003°10'612.4
2015-May-22 20:33N 51°26' W 003°01'1211.6
2015-May-22 19:33N 51°30' W 002°44'1 0.8
2015-May-22 18:33N 51°30' W 002°42'0 0.0
2015-May-22 17:33N 51°30' W 002°42'0 0.0
2015-May-22 16:33N 51°30' W 002°42'0 0.0
2015-May-22 15:33N 51°30' W 002°42'0 0.0
2015-May-22 14:33N 51°30' W 002°42'0 0.0
2015-May-22 13:33N 51°30' W 002°42'0 0.0
2015-May-22 12:33N 51°30' W 002°42'0 0.0
2015-May-22 11:33N 51°30' W 002°42'0 0.0
2015-May-22 10:33N 51°30' W 002°42'0 0.0
2015-May-22 09:33N 51°30' W 002°42'0 0.0
2015-May-22 08:33N 51°30' W 002°42'0 0.0
2015-May-22 07:33N 51°30' W 002°42'0 0.0
2015-May-22 06:32N 51°30' W 002°42'0 0.0
2015-May-22 05:33N 51°30' W 002°42'0 0.0
2015-May-22 04:33N 51°30' W 002°42'0 0.0
2015-May-22 03:33N 51°30' W 002°42'0 0.0
2015-May-22 02:33N 51°30' W 002°42'0 0.0
2015-May-22 01:33N 51°30' W 002°42'0 0.0
2015-May-22 00:32N 51°30' W 002°42'0 0.0
2015-May-21 23:33N 51°30' W 002°42'0 0.0
2015-May-21 22:33N 51°30' W 002°42'2 1.9
2015-May-21 21:33N 51°30' W 002°45'1313.1
2015-May-21 20:32N 51°24' W 003°04'167 8.8
2015-May-21 01:31N 53°37' W 005°50'1511.8
2015-May-21 00:16N 53°51' W 005°58'811.7
2015-May-20 23:33N 53°59' W 006°02'1010.1
2015-May-20 22:33N 54°06' W 006°15'1 0.2
2015-May-20 18:20N 54°06' W 006°16'3 0.6
2015-May-20 13:30N 54°04' W 006°12'1010.9
2015-May-20 12:33N 53°57' W 005°60'18712.3
2015-May-19 21:20N 51°21' W 003°08'1215.4
2015-May-19 20:33N 51°28' W 002°53'7 6.9
2015-May-19 19:33N 51°30' W 002°42'0 0.0
2015-May-19 18:32N 51°30' W 002°42'0 0.0
2015-May-19 17:32N 51°30' W 002°42'0 0.0
2015-May-19 16:32N 51°30' W 002°42'0 0.0
2015-May-19 15:32N 51°30' W 002°42'0 0.0
2015-May-19 14:32N 51°30' W 002°42'0 0.0
2015-May-19 13:32N 51°30' W 002°42'0 0.0
2015-May-19 12:32N 51°30' W 002°42'0 0.0
2015-May-19 11:32N 51°30' W 002°42'0 0.0
2015-May-19 10:32N 51°30' W 002°42'0 0.0
2015-May-19 09:32N 51°30' W 002°42'0 0.0
2015-May-19 08:32N 51°30' W 002°42'0 0.0
2015-May-19 07:32N 51°30' W 002°42'0 0.0
2015-May-19 06:32N 51°30' W 002°42'0 0.0
2015-May-19 05:32N 51°30' W 002°42'0 0.0
2015-May-19 04:32N 51°30' W 002°42'0 0.0
2015-May-19 03:32N 51°30' W 002°42'0 0.0
2015-May-19 02:32N 51°30' W 002°42'0 0.0
2015-May-19 01:32N 51°30' W 002°42'0 0.0
2015-May-19 00:32N 51°30' W 002°42'0 0.0
2015-May-18 23:32N 51°30' W 002°42'0 0.0
2015-May-18 22:32N 51°30' W 002°42'0 0.0
2015-May-18 21:32N 51°30' W 002°42'0 0.0
2015-May-18 20:29N 51°30' W 002°42'0 0.0
2015-May-18 19:32N 51°30' W 002°42'0 0.0
2015-May-18 18:32N 51°30' W 002°42'0 0.0
2015-May-18 17:32N 51°30' W 002°42'0 0.1
2015-May-18 16:32N 51°31' W 002°42'0 0.0
2015-May-18 15:32N 51°31' W 002°42'0 0.0
2015-May-18 14:32N 51°31' W 002°42'0 0.0
2015-May-18 13:32N 51°31' W 002°42'0 0.0
2015-May-18 12:32N 51°31' W 002°42'0 0.0
2015-May-18 11:32N 51°31' W 002°42'0 0.0
2015-May-18 10:32N 51°31' W 002°42'0 0.0
2015-May-18 09:32N 51°31' W 002°42'0 0.0
2015-May-18 08:32N 51°31' W 002°42'0 0.0
2015-May-18 07:32N 51°31' W 002°42'0 0.0
2015-May-18 06:32N 51°31' W 002°42'0 0.0
2015-May-18 05:32N 51°31' W 002°42'0 0.0
2015-May-18 04:32N 51°31' W 002°42'0 0.0
2015-May-18 03:32N 51°31' W 002°42'0 0.0
2015-May-18 02:31N 51°31' W 002°42'0 0.0
2015-May-18 01:32N 51°31' W 002°42'0 0.0
2015-May-18 00:32N 51°31' W 002°42'0 0.0
2015-May-17 23:32N 51°31' W 002°42'0 0.0
2015-May-17 22:31N 51°31' W 002°42'0 0.0
2015-May-17 21:32N 51°31' W 002°42'0 0.0
2015-May-17 20:32N 51°31' W 002°42'0 0.0
2015-May-17 19:31N 51°31' W 002°42'0 0.0
2015-May-17 18:31N 51°31' W 002°42'0 0.0
2015-May-17 17:32N 51°31' W 002°42'0 0.1
2015-May-17 16:31N 51°30' W 002°42'0 0.0
2015-May-17 15:32N 51°30' W 002°42'0 0.0
2015-May-17 14:31N 51°30' W 002°42'0 0.0
2015-May-17 13:31N 51°30' W 002°42'0 0.0
2015-May-17 12:31N 51°30' W 002°42'0 0.0
2015-May-17 11:31N 51°30' W 002°42'0 0.0
2015-May-17 10:31N 51°30' W 002°42'0 0.0
2015-May-17 09:31N 51°30' W 002°42'0 0.0
2015-May-17 08:33N 51°30' W 002°42'0 0.0
2015-May-17 07:31N 51°30' W 002°42'0 0.0
2015-May-17 06:32N 51°30' W 002°42'0 0.0
2015-May-17 05:31N 51°30' W 002°42'0 0.0
2015-May-17 04:31N 51°30' W 002°42'0 0.0
2015-May-17 03:31N 51°30' W 002°42'0 0.0
2015-May-17 02:31N 51°30' W 002°42'0 0.0
2015-May-17 01:31N 51°30' W 002°42'0 0.0
2015-May-17 00:31N 51°30' W 002°42'0 0.0
2015-May-16 23:31N 51°30' W 002°42'  

Dump ship's entire track history